Time;durP1;ratioP1;P1;durP2;ratioP2;P2;SDS_P1;SDS_P2;PMS_P1;PMS_P2;Temp;Humidity;BMP_temperature;BMP_pressure;BME280_temperature;BME280_humidity;BME280_pressure;Samples;Min_cycle;Max_cycle;Signal;HPM_P1;HPM_P2
2022/12/11 00:03:26;;;;;;;8.10;5.20;;;3.50;57.90;;;1.57;64.46;100671.66;12158722;19;20978;-84
2022/12/11 00:07:28;;;;;;;6.13;4.78;;;3.60;58.00;;;1.72;64.51;100702.22;12160330;19;21014;-84
2022/12/11 00:11:33;;;;;;;8.85;5.00;;;3.50;58.00;;;1.62;64.16;100680.13;12161072;19;20018;-84
2022/12/11 00:15:49;;;;;;;;;;;3.70;58.00;;;1.75;64.26;100702.16;12159317;19;20558;-84
2022/12/11 00:19:54;;;;;;;6.30;3.83;;;3.60;58.00;;;1.66;64.36;100694.63;12154599;19;19914;-84
2022/12/11 00:24:04;;;;;;;6.00;4.55;;;3.90;58.10;;;1.47;64.23;100654.69;12158858;19;20018;-84
2022/12/11 00:28:09;;;;;;;7.28;5.25;;;3.70;58.00;;;1.61;64.26;100675.84;12156828;19;20055;-84
2022/12/11 00:32:10;;;;;;;8.85;5.10;;;3.70;58.00;;;1.54;64.14;100666.56;12160195;19;20510;-84
2022/12/11 00:36:20;;;;;;;8.02;5.18;;;3.70;58.20;;;1.79;64.24;100710.69;12160872;19;20783;-84
2022/12/11 00:40:25;;;;;;;7.18;5.00;;;3.80;58.00;;;1.63;64.28;100671.53;12153340;19;20029;-84
2022/12/11 00:44:32;;;;;;;7.43;5.07;;;3.60;58.00;;;1.46;64.29;100637.53;12163716;19;20026;-85
2022/12/11 00:48:37;;;;;;;10.23;5.45;;;3.60;58.00;;;1.64;64.41;100662.06;12176517;19;20014;-85
2022/12/11 00:52:39;;;;;;;9.55;4.95;;;3.60;57.90;;;1.60;64.17;100663.88;12180271;19;20122;-85
2022/12/11 00:56:55;;;;;;;8.02;5.28;;;3.60;58.00;;;2.04;64.15;100738.53;12176576;19;20653;-85
2022/12/11 01:01:39;;;;;;;9.18;5.65;;;3.60;58.10;;;1.60;64.18;100679.31;12173672;19;20018;-84
2022/12/11 01:05:43;;;;;;;7.85;5.53;;;3.40;57.80;;;1.58;64.27;100668.19;12170643;19;20403;-84
2022/12/11 01:14:07;;;;;;;10.93;6.25;;;3.60;57.90;;;1.44;64.08;100649.59;12179885;19;20982;-84
2022/12/11 01:18:11;;;;;;;10.93;5.70;;;3.60;57.90;;;1.28;64.12;100628.44;12176418;19;20451;-84
2022/12/11 01:22:14;;;;;;;8.60;5.65;;;3.60;58.00;;;1.46;64.25;100650.38;12177439;19;20011;-83
2022/12/11 01:26:16;;;;;;;10.90;5.80;;;3.80;58.20;;;1.59;64.11;100684.47;12168843;19;20130;-83
2022/12/11 01:30:24;;;;;;;7.70;5.45;;;3.80;58.20;;;1.42;64.21;100648.78;12172781;19;20094;-84
2022/12/11 01:34:29;;;;;;;10.07;5.85;;;3.60;58.00;;;2.05;64.48;100756.50;12183052;19;20600;-84
2022/12/11 01:38:30;;;;;;;9.68;6.28;;;3.60;58.00;;;2.01;64.15;100734.28;12184827;19;20022;-84
2022/12/11 01:42:33;;;;;;;10.43;5.95;;;3.60;58.00;;;1.97;64.26;100733.50;12187502;19;20046;-84
2022/12/11 01:46:36;;;;;;;10.05;5.68;;;3.80;58.10;;;2.02;64.16;100746.28;12189657;19;20407;-84
2022/12/11 01:50:52;;;;;;;9.98;5.82;;;3.60;58.00;;;1.95;64.28;100735.25;12178520;19;20095;-83
2022/12/11 01:54:54;;;;;;;9.52;5.22;;;3.80;58.10;;;1.95;64.28;100735.25;12179262;19;20025;-84
2022/12/11 01:59:01;;;;;;;9.18;5.32;;;3.70;58.10;;;2.00;64.34;100748.06;12180614;19;20018;-84
2022/12/11 02:03:03;;;;;;;7.35;5.30;;;3.60;58.10;;;1.90;64.38;100723.34;12186433;19;20372;-84
2022/12/11 02:07:05;;;;;;;11.63;5.70;;;3.70;58.20;;;1.90;64.36;100711.31;12194461;19;20022;-84
2022/12/11 02:11:23;;;;;;;9.25;5.82;;;3.70;58.20;;;1.97;64.17;100727.47;12189931;19;20375;-84
2022/12/11 02:15:34;;;;;;;10.52;5.55;;;3.70;58.20;;;2.07;64.26;100752.19;12180929;19;20712;-84
2022/12/11 02:19:48;;;;;;;10.43;5.95;;;3.70;58.20;;;2.06;64.26;100742.78;12194767;19;20934;-84
2022/12/11 02:24:36;;;;;;;9.43;5.60;;;3.70;58.10;;;2.04;64.19;100744.53;12186559;19;20030;-84
2022/12/11 02:28:50;;;;;;;8.60;4.60;;;3.70;58.00;;;2.03;64.17;100737.69;12178994;19;20450;-84
2022/12/11 02:32:57;;;;;;;9.73;5.47;;;3.70;58.10;;;1.97;64.09;100730.94;12185748;19;20403;-84
2022/12/11 02:37:12;;;;;;;10.85;5.93;;;3.70;58.20;;;1.90;64.19;100716.47;12186294;19;20312;-83
2022/12/11 02:41:14;;;;;;;8.55;5.82;;;3.70;58.20;;;2.04;64.35;100739.38;12178559;19;20015;-84
2022/12/11 02:45:17;;;;;;;11.05;6.63;;;3.80;58.20;;;2.05;64.20;100735.06;12181794;19;20319;-84
2022/12/11 02:49:22;;;;;;;8.95;5.93;;;3.70;58.20;;;1.99;64.19;100726.56;12178734;19;20379;-84
2022/12/11 02:53:30;;;;;;;12.27;6.03;;;3.90;58.30;;;1.95;64.11;100731.84;12182910;19;20042;-84
2022/12/11 02:57:51;;;;;;;9.93;6.05;;;3.60;58.20;;;1.94;64.37;100727.53;12185403;19;20010;-84
2022/12/11 03:01:52;;;;;;;10.38;5.75;;;3.60;58.20;;;1.95;64.08;100724.13;12180963;19;20436;-84
2022/12/11 03:05:54;;;;;;;9.23;5.90;;;3.80;58.30;;;1.88;64.30;100709.66;12180120;19;20403;-84
2022/12/11 03:09:56;;;;;;;8.25;6.20;;;3.60;58.30;;;1.90;64.23;100710.47;12176838;19;20022;-84
2022/12/11 03:14:01;;;;;;;10.93;6.68;;;3.60;58.60;;;1.63;64.26;100675.81;12182337;19;20928;-84
2022/12/11 03:18:27;;;;;;;11.32;6.32;;;3.60;58.30;;;2.02;64.40;100724.81;12185331;19;20420;-84
2022/12/11 03:23:07;;;;;;;12.07;6.65;;;3.60;58.30;;;1.95;64.44;100714.66;12177177;19;20018;-84
2022/12/11 03:27:39;;;;;;;9.73;6.20;;;3.60;58.30;;;1.96;64.25;100721.50;12182842;19;20015;-84
2022/12/11 03:32:11;;;;;;;9.10;6.05;;;3.80;58.50;;;1.99;64.23;100720.59;12179210;19;20035;-84
2022/12/11 03:36:19;;;;;;;11.98;6.93;;;3.60;58.30;;;1.86;64.15;100698.53;12183179;19;20022;-84
2022/12/11 03:40:24;;;;;;;11.38;7.15;;;3.60;58.40;;;1.96;64.21;100705.19;12177653;19;20018;-84
2022/12/11 03:44:28;;;;;;;9.43;6.00;;;3.60;58.40;;;1.94;64.32;100710.38;12178689;19;20018;-84
2022/12/11 03:48:34;;;;;;;11.20;6.18;;;3.60;58.30;;;2.03;64.34;100729.13;12179649;19;20377;-84
2022/12/11 03:52:40;;;;;;;10.65;5.97;;;3.60;58.60;;;1.96;64.37;100713.75;12203042;19;20902;-84
2022/12/11 03:56:44;;;;;;;9.93;6.50;;;3.60;58.30;;;1.92;64.08;100709.56;12212128;19;20050;-84
2022/12/11 04:00:46;;;;;;;11.43;5.97;;;3.60;58.20;;;1.96;64.12;100710.34;12211724;19;20018;-86
2022/12/11 04:04:48;;;;;;;9.25;5.72;;;3.60;58.30;;;1.80;64.11;100696.94;12213031;19;20011;-84
2022/12/11 04:08:50;;;;;;;10.75;5.68;;;3.50;58.20;;;1.81;64.21;100692.63;12207392;19;20074;-85
2022/12/11 04:12:52;;;;;;;12.02;6.35;;;3.50;58.30;;;1.89;64.27;100704.50;12212841;19;20081;-84
2022/12/11 04:16:55;;;;;;;11.75;6.80;;;3.50;58.30;;;1.92;64.35;100712.16;12205754;19;20027;-85
2022/12/11 04:25:18;;;;;;;7.60;5.32;;;3.50;58.30;;;2.01;64.17;100712.84;12210102;19;20042;-84
2022/12/11 04:29:20;;;;;;;10.23;7.22;;;3.50;58.40;;;1.97;64.18;100704.31;12205640;19;20100;-84
2022/12/11 04:33:21;;;;;;;10.38;6.47;;;3.50;58.40;;;1.81;64.16;100687.47;12207337;19;20965;-84
2022/12/11 04:37:23;;;;;;;10.73;6.00;;;3.50;58.30;;;1.99;64.20;100705.13;12204464;19;20325;-84
2022/12/11 04:41:25;;;;;;;13.30;5.85;;;3.50;58.30;;;1.79;64.15;100676.38;12195221;19;20478;-84
2022/12/11 04:45:27;;;;;;;9.85;5.93;;;3.50;58.30;;;1.58;64.20;100647.59;12202291;19;20854;-84
2022/12/11 04:49:29;;;;;;;10.50;6.18;;;3.50;58.30;;;1.93;64.16;100695.81;12201962;19;20468;-84
2022/12/11 04:53:31;;;;;;;8.32;5.55;;;3.50;58.30;;;1.85;64.08;100676.25;12197944;19;20361;-84
2022/12/11 04:57:33;;;;;;;10.00;5.88;;;3.50;58.30;;;1.81;64.21;100670.31;12203544;19;20025;-84
2022/12/11 05:01:35;;;;;;;9.43;5.72;;;3.50;58.30;;;1.95;64.20;100704.34;12197368;19;20280;-83
2022/12/11 05:05:37;;;;;;;8.93;5.80;;;3.50;58.40;;;2.00;64.39;100709.44;12199676;19;20086;-84
2022/12/11 05:09:39;;;;;;;11.82;7.00;;;3.80;58.50;;;1.98;64.22;100703.44;12201815;19;20027;-84
2022/12/11 05:13:41;;;;;;;10.80;5.82;;;3.50;58.30;;;1.87;64.17;100685.63;12205579;19;20015;-84
2022/12/11 05:17:43;;;;;;;11.95;6.78;;;3.50;58.30;;;1.79;64.18;100668.66;12206811;19;20018;-84
2022/12/11 05:21:45;;;;;;;9.40;6.00;;;3.50;58.30;;;1.95;64.29;100698.38;12191216;19;20347;-84
2022/12/11 05:25:53;;;;;;;11.40;6.70;;;3.70;58.40;;;1.80;64.17;100671.19;12199747;19;20022;-85
2022/12/11 05:29:55;;;;;;;8.65;5.80;;;3.50;58.30;;;1.76;64.03;100667.00;12200057;19;20019;-84
2022/12/11 05:33:56;;;;;;;10.35;6.43;;;3.50;58.30;;;1.90;64.16;100698.44;12199710;19;20058;-84
2022/12/11 05:37:59;;;;;;;10.93;6.78;;;3.60;58.30;;;1.81;64.11;100674.59;12195560;19;20459;-84
2022/12/11 05:42:01;;;;;;;10.60;6.63;;;3.40;58.20;;;1.81;64.05;100679.75;12193090;19;20483;-84
2022/12/11 05:46:15;;;;;;;13.55;8.20;;;3.40;58.10;;;1.87;64.24;100685.63;12191541;19;20025;-85
2022/12/11 05:50:18;;;;;;;9.50;6.32;;;3.40;58.10;;;1.81;64.31;100661.72;12195599;19;20319;-84
2022/12/11 05:54:20;;;;;;;9.98;5.95;;;3.40;58.10;;;1.67;64.00;100639.69;12183078;19;20348;-84
2022/12/11 05:58:22;;;;;;;13.95;7.85;;;3.40;58.10;;;1.67;64.10;100649.97;12154542;19;20022;-84
2022/12/11 06:02:23;;;;;;;7.88;6.00;;;3.30;57.90;;;1.67;64.09;100649.97;12150386;19;20026;-84
2022/12/11 06:06:26;;;;;;;11.75;6.05;;;3.30;58.00;;;1.80;64.06;100675.50;12145430;19;20018;-84
2022/12/11 06:10:28;;;;;;;8.48;5.28;;;3.60;58.20;;;1.76;64.12;100667.84;12148691;19;20060;-83
2022/12/11 06:14:30;;;;;;;9.77;5.97;;;3.30;58.10;;;1.81;64.11;100670.31;12145997;19;20048;-84
2022/12/11 06:18:40;;;;;;;8.70;6.10;;;3.50;58.10;;;1.77;64.26;100668.69;12148453;19;20038;-84
2022/12/11 06:22:45;;;;;;;8.43;5.80;;;3.30;58.00;;;1.79;64.19;100671.22;12152716;19;20390;-84
2022/12/11 06:26:47;;;;;;;10.73;6.72;;;3.30;58.00;;;1.76;64.13;100678.13;12157186;19;20034;-84
2022/12/11 06:30:49;;;;;;;10.00;7.10;;;3.30;57.90;;;1.62;63.93;100656.97;12156302;19;20034;-84
2022/12/11 06:34:51;;;;;;;10.75;6.00;;;3.50;57.90;;;1.61;64.13;100650.09;12160528;19;20015;-84
2022/12/11 06:38:54;;;;;;;12.40;7.30;;;3.50;57.90;;;1.74;64.07;100673.88;12157562;19;20018;-84
2022/12/11 06:42:56;;;;;;;9.25;6.00;;;3.30;57.90;;;1.35;64.05;100618.88;12155145;19;21049;-84
2022/12/11 06:46:57;;;;;;;11.10;6.93;;;3.50;58.00;;;1.70;64.02;100674.81;12155885;19;20332;-84
2022/12/11 06:51:04;;;;;;;11.30;7.03;;;3.30;57.80;;;1.63;64.11;100676.66;12158169;19;20025;-84
2022/12/11 06:55:06;;;;;;;12.02;6.60;;;3.30;57.70;;;1.72;64.11;100702.22;12156673;19;20037;-84
2022/12/11 06:59:11;;;;;;;10.95;6.70;;;3.30;57.80;;;1.57;64.07;100679.38;12152615;19;20014;-83
2022/12/11 07:03:13;;;;;;;;;;;3.30;57.40;;;1.63;64.02;100709.28;12153667;19;20042;-84
2022/12/11 07:07:15;;;;;;;9.52;5.65;;;3.20;57.40;;;1.50;63.85;100686.34;12154541;19;20241;-83
2022/12/11 07:11:19;;;;;;;8.40;5.30;;;3.20;57.00;;;1.54;64.15;100687.16;12152718;19;20461;-83
2022/12/11 07:15:20;;;;;;;11.00;6.70;;;3.20;57.30;;;1.57;64.16;100692.22;12154609;19;20399;-83
2022/12/11 07:19:23;;;;;;;10.20;6.72;;;3.10;57.20;;;1.49;63.79;100674.34;12157517;19;20609;-85
2022/12/11 07:23:29;;;;;;;12.15;7.55;;;3.10;57.10;;;1.40;64.03;100677.09;12175966;19;20028;-85
2022/12/11 07:27:31;;;;;;;11.00;7.00;;;3.10;56.90;;;1.49;63.84;100691.53;12165160;19;20022;-84
2022/12/11 07:31:33;;;;;;;9.95;6.20;;;3.00;57.10;;;1.42;63.92;100690.78;12174300;19;20018;-84
2022/12/11 07:35:35;;;;;;;13.50;6.88;;;3.00;57.20;;;1.42;63.79;100695.06;12168265;19;20810;-84
2022/12/11 07:39:37;;;;;;;10.13;6.38;;;3.10;57.10;;;1.51;63.77;100718.06;12174956;19;20026;-82
2022/12/11 07:43:40;;;;;;;8.23;5.35;;;3.00;57.20;;;1.46;63.95;100713.00;12171009;19;20014;-83
2022/12/11 07:47:41;;;;;;;11.32;7.35;;;3.00;57.20;;;1.49;63.66;100709.53;12171158;19;20018;-85
2022/12/11 07:51:43;;;;;;;11.40;6.53;;;3.10;56.80;;;1.45;63.73;100718.19;12167866;19;20010;-82
2022/12/11 07:55:45;;;;;;;10.70;6.80;;;3.00;57.10;;;1.22;63.66;100691.13;12169645;19;20007;-82
2022/12/11 07:59:47;;;;;;;9.88;5.75;;;3.00;57.00;;;1.37;63.79;100712.31;12169652;19;20859;-81
2022/12/11 08:03:49;;;;;;;12.00;6.78;;;3.00;57.10;;;1.45;63.73;100719.00;12172018;19;20014;-83
2022/12/11 08:07:51;;;;;;;10.38;6.57;;;2.90;56.80;;;1.35;63.61;100701.19;12169971;19;20098;-84
2022/12/11 08:16:14;;;;;;;11.23;7.38;;;2.90;56.50;;;1.14;63.73;100687.84;12189910;19;20015;-82
2022/12/11 08:20:16;;;;;;;8.55;6.15;;;2.90;56.60;;;1.30;63.84;100725.28;12168359;19;20014;-83
2022/12/11 08:24:19;;;;;;;10.77;6.22;;;2.90;57.00;;;1.24;63.70;100709.97;12175176;19;20030;-81
2022/12/11 08:28:21;;;;;;;9.80;6.15;;;2.90;57.00;;;1.17;63.72;100705.78;12176143;19;20006;-82
2022/12/11 08:32:23;;;;;;;11.10;6.75;;;2.80;56.90;;;1.17;63.82;100703.22;12181804;19;20891;-82
2022/12/11 08:36:25;;;;;;;8.88;6.28;;;2.80;56.90;;;1.26;63.69;100722.78;12176135;19;20855;-81
2022/12/11 08:40:27;;;;;;;11.02;6.72;;;2.80;56.70;;;1.14;63.56;100703.28;12174002;19;20576;-82
2022/12/11 08:44:29;;;;;;;11.20;6.68;;;2.80;56.50;;;1.25;63.62;100731.41;12169617;19;20026;-81
2022/12/11 08:48:30;;;;;;;11.15;7.43;;;2.80;56.70;;;1.19;63.64;100724.63;12178415;19;20390;-81
2022/12/11 08:52:35;;;;;;;9.73;6.03;;;2.70;56.50;;;1.17;63.74;100717.81;12194440;19;20018;-81
2022/12/11 08:56:37;;;;;;;9.68;7.05;;;2.70;56.80;;;1.06;63.66;100695.69;12189474;19;20333;-82
2022/12/11 09:00:40;;;;;;;8.95;6.35;;;2.80;56.90;;;1.24;63.59;100729.69;12182332;19;20132;-82
2022/12/11 09:04:42;;;;;;;8.30;5.63;;;2.80;56.70;;;1.18;63.62;100720.34;12175853;19;20734;-80
2022/12/11 09:08:46;;;;;;;14.32;6.70;;;2.80;56.80;;;1.14;63.67;100713.56;12176055;19;20034;-81
2022/12/11 09:12:47;;;;;;;8.83;6.03;;;2.80;56.80;;;1.24;63.61;100727.97;12177188;19;20022;-80
2022/12/11 09:16:49;;;;;;;7.60;5.25;;;2.80;57.00;;;1.13;63.74;100706.72;12178239;19;20035;-81
2022/12/11 09:21:03;;;;;;;10.60;6.55;;;2.80;57.50;;;1.27;63.79;100729.63;12175787;19;20015;-80
2022/12/11 09:25:06;;;;;;;8.55;5.78;;;2.80;57.20;;;1.30;63.83;100735.59;12175107;19;20788;-80
2022/12/11 09:29:10;;;;;;;7.60;5.15;;;2.80;57.30;;;1.34;63.83;100723.50;12173613;19;20021;-80
2022/12/11 09:33:12;;;;;;;9.65;5.38;;;2.80;57.40;;;1.26;63.86;100700.47;12174082;19;20113;-81
2022/12/11 09:37:14;;;;;;;8.63;6.00;;;2.90;57.40;;;1.40;63.92;100713.09;12172261;19;21310;-82
2022/12/11 09:41:28;;;;;;;10.70;6.40;;;2.90;57.40;;;1.41;63.66;100721.69;12158562;19;20343;-82
2022/12/11 09:45:30;;;;;;;12.27;6.93;;;3.00;57.20;;;1.30;63.80;100694.44;12159991;19;20047;-82
2022/12/11 09:49:42;;;;;;;11.32;6.28;;;3.00;57.00;;;1.35;63.49;100696.06;12144333;19;20608;-81
2022/12/11 09:53:44;;;;;;;8.80;5.93;;;3.30;57.20;;;1.27;63.67;100678.19;12156766;19;20395;-82
2022/12/11 11:13:25;;;;;;;10.43;5.75;;;3.10;57.00;;;1.01;63.44;100553.50;12222149;19;20014;-82
2022/12/11 11:17:29;;;;;;;8.23;5.35;;;3.20;57.10;;;1.56;63.57;100639.06;12172001;19;20420;-83
2022/12/11 11:21:34;;;;;;;7.05;5.13;;;3.10;57.10;;;1.60;63.51;100635.56;12176399;19;20324;-82
2022/12/11 11:25:35;;;;;;;9.70;5.75;;;3.20;57.40;;;1.59;63.76;100627.84;12177426;19;20272;-83
2022/12/11 11:29:37;;;;;;;7.80;5.13;;;3.10;57.20;;;1.54;63.87;100617.66;12174828;19;20022;-83
2022/12/11 11:33:54;;;;;;;6.93;4.43;;;3.20;57.20;;;1.63;63.76;100619.22;12180738;19;20010;-83
2022/12/11 11:38:17;;;;;;;7.22;5.07;;;3.20;57.20;;;1.54;63.71;100597.94;12180489;19;20025;-84
2022/12/11 11:42:36;;;;;;;6.78;4.53;;;3.20;57.10;;;1.49;63.61;100586.88;12177141;19;20808;-84
2022/12/11 11:47:23;;;;;;;7.30;4.88;;;3.20;57.20;;;1.67;63.63;100605.38;12174361;19;20485;-83
2022/12/11 12:09:35;;;;;;;5.88;4.32;;;3.20;57.20;;;1.64;63.86;100590.00;12161868;19;20887;-83
2022/12/11 12:14:35;;;;;;;7.55;5.00;;;3.30;57.30;;;1.70;63.84;100592.44;12163252;19;20026;-83
2022/12/11 12:19:00;;;;;;;8.38;5.30;;;3.30;57.40;;;1.63;63.63;100581.44;12173862;19;20662;-81
2022/12/11 12:23:55;;;;;;;7.38;5.53;;;3.30;57.30;;;1.75;63.63;100591.47;12177237;19;20047;-82
2022/12/11 12:46:38;;;;;;;9.68;6.00;;;3.40;57.30;;;1.84;63.54;100599.91;12178976;19;20018;-83
2022/12/11 12:50:45;;;;;;;7.32;5.32;;;3.40;57.30;;;1.78;63.83;100572.53;12170008;19;20025;-83
2022/12/11 12:55:13;;;;;;;7.88;5.53;;;3.40;57.30;;;1.76;63.84;100562.28;12179341;19;20323;-81
2022/12/11 12:59:26;;;;;;;9.18;6.00;;;3.50;57.20;;;1.87;63.57;100576.66;12176377;19;20950;-82
2022/12/11 13:03:34;;;;;;;8.63;5.25;;;3.50;57.10;;;1.91;63.82;100588.56;12177561;19;20033;-82
2022/12/11 13:20:53;;;;;;;8.02;5.53;;;3.50;57.20;;;1.69;63.69;100541.84;12180611;19;20023;-82
2022/12/11 13:25:15;;;;;;;8.18;5.05;;;3.80;57.40;;;1.60;63.49;100516.34;12174283;19;20022;-82
2022/12/11 13:29:40;;;;;;;6.05;4.68;;;3.60;57.30;;;1.95;63.52;100567.03;12179577;19;20048;-82
2022/12/11 13:33:51;;;;;;;8.38;5.28;;;3.80;57.20;;;1.98;63.62;100566.97;12196049;19;20021;-82
2022/12/11 13:43:07;;;;;;;7.55;5.47;;;3.60;57.20;;;1.35;63.57;100459.41;12193377;19;20010;-83
2022/12/11 13:52:37;;;;;;;9.30;5.35;;;3.90;57.40;;;1.89;63.57;100537.13;12188344;19;20405;-82
2022/12/11 13:57:21;;;;;;;9.35;4.85;;;3.90;57.40;;;1.45;63.54;100463.47;12184940;19;20021;-83
2022/12/11 14:02:34;;;;;;;7.75;4.97;;;3.70;57.20;;;2.04;63.53;100555.69;12181019;19;20030;-82
2022/12/11 14:07:42;;;;;;;9.25;5.55;;;3.70;57.30;;;2.03;63.58;100562.56;12191227;19;20475;-82
2022/12/11 14:16:53;;;;;;;8.80;5.72;;;3.70;57.20;;;1.91;63.36;100529.34;12180551;19;20018;-82
2022/12/11 14:34:01;;;;;;;12.23;6.45;;;3.60;57.30;;;1.92;63.35;100541.38;12197663;19;20451;-84
2022/12/11 15:03:47;;;;;;;9.93;6.95;;;3.70;57.40;;;2.09;63.55;100553.84;12180483;19;20539;-82
2022/12/11 15:08:27;;;;;;;8.25;6.15;;;3.60;57.40;;;2.06;63.55;100549.63;12177018;19;20007;-83
2022/12/11 15:12:42;;;;;;;11.40;6.93;;;3.60;57.40;;;2.06;63.55;100557.34;12180804;19;20014;-83
2022/12/11 15:16:47;;;;;;;10.77;7.53;;;3.70;57.40;;;1.98;63.47;100541.22;12191055;19;20085;-84
2022/12/11 15:21:02;;;;;;;10.18;7.65;;;3.60;57.30;;;1.94;63.61;100537.84;12192652;19;20020;-83
2022/12/11 16:19:24;;;;;;;8.63;5.57;;;3.70;57.60;;;2.10;63.38;100573.56;12211429;19;20272;-84
2022/12/11 16:23:32;;;;;;;12.65;7.30;;;3.50;57.50;;;1.65;63.37;100494.75;12166255;19;20419;-83
2022/12/11 16:27:35;;;;;;;9.95;6.30;;;3.70;57.50;;;1.68;63.32;100502.41;12161779;19;20022;-83
2022/12/11 16:31:40;;;;;;;11.73;6.72;;;3.70;57.50;;;1.92;63.48;100538.78;12163779;19;20010;-82
2022/12/11 16:35:42;;;;;;;10.18;6.30;;;3.60;57.50;;;2.06;63.59;100559.91;12141406;19;20462;-83
2022/12/11 16:39:45;;;;;;;9.80;6.15;;;3.60;57.60;;;2.02;63.31;100552.28;12117210;19;20260;-81
2022/12/11 16:43:48;;;;;;;12.18;6.22;;;3.90;57.80;;;2.03;63.44;100554.84;12130401;19;20022;-82
2022/12/11 16:47:51;;;;;;;14.25;8.70;;;3.60;57.60;;;1.93;63.50;100527.59;12125452;19;20378;-82
2022/12/11 16:51:52;;;;;;;12.77;7.97;;;3.60;57.60;;;1.97;63.56;100529.22;12092936;19;20472;-82
2022/12/11 16:55:54;;;;;;;12.93;8.43;;;3.80;57.80;;;2.08;63.48;100557.28;12090141;19;20351;-82
2022/12/11 16:59:56;;;;;;;9.52;6.63;;;3.70;57.70;;;2.04;63.49;100543.66;12091246;19;20019;-82
2022/12/11 17:03:59;;;;;;;13.68;8.13;;;3.60;57.80;;;2.04;63.32;100538.50;12104172;19;20380;-81
2022/12/11 17:08:04;;;;;;;14.93;7.85;;;3.60;57.80;;;2.09;63.41;100551.28;12133188;19;20015;-81
2022/12/11 17:12:06;;;;;;;10.52;6.75;;;3.60;57.80;;;1.70;63.29;100485.22;12146852;19;20019;-82
2022/12/11 17:16:11;;;;;;;8.30;6.05;;;3.70;57.90;;;2.05;63.48;100544.50;12141901;19;20472;-82
2022/12/11 17:20:13;;;;;;;10.90;7.18;;;3.60;57.80;;;1.92;63.45;100523.34;12139699;19;20614;-83
2022/12/11 17:24:16;;;;;;;9.52;6.13;;;3.60;57.80;;;1.53;63.59;100459.84;12140891;19;20015;-82
2022/12/11 17:28:18;;;;;;;8.82;5.80;;;3.60;57.80;;;2.01;63.54;100533.41;12137353;19;20379;-82
2022/12/11 17:32:20;;;;;;;10.55;6.28;;;3.60;57.90;;;1.99;63.48;100535.19;12141850;19;20372;-82
2022/12/11 17:36:22;;;;;;;10.07;6.32;;;3.60;57.80;;;2.02;63.58;100535.09;12136913;19;20276;-82
2022/12/11 17:40:24;;;;;;;10.50;6.68;;;3.60;57.90;;;2.06;63.51;100541.88;12144412;19;20150;-82
2022/12/11 17:44:29;;;;;;;9.75;6.32;;;3.80;58.00;;;2.07;63.38;100541.00;12134439;19;20279;-82
2022/12/11 17:48:31;;;;;;;10.40;7.27;;;3.60;57.90;;;1.98;63.45;100518.88;12136270;19;20018;-82
2022/12/11 17:52:33;;;;;;;9.88;6.63;;;3.70;57.90;;;2.07;63.48;100533.28;12134548;19;20023;-82
2022/12/11 17:56:35;;;;;;;8.80;6.13;;;3.70;57.90;;;1.70;63.29;100477.50;12129548;19;20025;-82
2022/12/11 18:00:39;;;;;;;11.48;6.65;;;3.60;57.90;;;1.99;63.54;100532.59;12135612;19;20043;-82
2022/12/11 18:04:41;;;;;;;12.10;7.03;;;3.60;57.90;;;1.98;63.50;100524.03;12139377;19;20456;-82
2022/12/11 18:08:44;;;;;;;9.05;5.93;;;3.60;57.90;;;1.97;63.66;100539.50;12132900;19;20023;-82
2022/12/11 18:12:46;;;;;;;10.55;6.32;;;3.60;57.90;;;1.94;63.56;100518.97;12128834;19;20339;-83
2022/12/11 18:16:48;;;;;;;10.68;6.95;;;3.60;57.90;;;2.09;63.47;100541.81;12135153;19;20435;-84
2022/12/11 18:20:50;;;;;;;12.13;8.27;;;3.60;58.00;;;1.98;63.62;100520.63;12141589;19;20470;-83
2022/12/11 18:24:53;;;;;;;13.30;8.75;;;3.60;57.90;;;2.06;63.37;100541.88;12142380;19;20488;-83
2022/12/11 18:28:55;;;;;;;13.60;9.20;;;3.60;57.90;;;2.07;63.28;100537.56;12143018;19;20963;-83
2022/12/11 18:32:57;;;;;;;12.15;7.85;;;3.70;58.00;;;1.81;63.52;100496.97;12143145;19;20019;-83
2022/12/11 18:37:00;;;;;;;18.35;11.60;;;3.60;57.90;;;1.93;63.39;100520.72;12144672;19;20113;-82
2022/12/11 18:41:11;;;;;;;16.33;9.77;;;3.60;58.00;;;2.03;63.48;100541.13;12147479;19;20966;-83
2022/12/11 18:45:43;;;;;;;13.27;8.13;;;3.50;57.90;;;1.58;63.36;100469.19;12161865;19;20050;-83
2022/12/11 18:49:52;;;;;;;11.35;7.80;;;3.60;58.00;;;1.44;63.39;100449.75;12162466;19;20010;-83
2022/12/11 20:40:44;;;;;;;12.27;5.97;;;3.60;58.20;;;1.92;63.71;100508.72;12198110;19;20015;-84
